Terminal Aerodrome Forecast
Issued by NWS Cleveland, OH

Home | Current Version | Previous Version | Text Only | Print | Product List | Glossary Off
Versions: 1 2 3 4 5 6 7 8 9 10 11 12 13 14 15 16

000
FTUS41 KCLE 162300
TAFMFD
TAF
KMFD 162338Z 1700/1724 16010KT P6SM VCSH OVC014
     FM170500 19006KT P6SM OVC006
     FM171500 31006KT P6SM SCT006 OVC015
     FM171800 31006KT P6SM SCT020=

USA.gov is the U.S. government's official web portal to all federal, state and local government web resources and services.